sensor_id;sensor_type;location;lat;lon;timestamp;temperature;humidity
47765;DHT22;33529;49.242;8.670;2023-12-20T00:01:37;4.80;99.90
47765;DHT22;33529;49.242;8.670;2023-12-20T00:04:04;4.80;99.90
47765;DHT22;33529;49.242;8.670;2023-12-20T00:06:31;4.80;99.90
47765;DHT22;33529;49.242;8.670;2023-12-20T00:08:58;4.80;99.90
47765;DHT22;33529;49.242;8.670;2023-12-20T00:11:25;4.80;99.90
47765;DHT22;33529;49.242;8.670;2023-12-20T00:13:52;4.80;99.90
47765;DHT22;33529;49.242;8.670;2023-12-20T00:16:19;4.80;99.90
47765;DHT22;33529;49.242;8.670;2023-12-20T00:18:46;4.90;99.90
47765;DHT22;33529;49.242;8.670;2023-12-20T00:21:13;4.90;99.90
47765;DHT22;33529;49.242;8.670;2023-12-20T00:23:40;4.90;99.90
47765;DHT22;33529;49.242;8.670;2023-12-20T00:26:08;4.80;99.90
47765;DHT22;33529;49.242;8.670;2023-12-20T00:28:34;4.80;99.90
47765;DHT22;33529;49.242;8.670;2023-12-20T00:31:01;4.80;99.90
47765;DHT22;33529;49.242;8.670;2023-12-20T00:33:28;4.80;99.90
47765;DHT22;33529;49.242;8.670;2023-12-20T00:35:55;4.80;99.90
47765;DHT22;33529;49.242;8.670;2023-12-20T00:38:22;4.80;99.90
47765;DHT22;33529;49.242;8.670;2023-12-20T00:40:49;4.80;99.90
47765;DHT22;33529;49.242;8.670;2023-12-20T00:43:16;4.80;99.90
47765;DHT22;33529;49.242;8.670;2023-12-20T00:45:43;4.90;99.90
47765;DHT22;33529;49.242;8.670;2023-12-20T00:48:10;4.90;99.90
47765;DHT22;33529;49.242;8.670;2023-12-20T00:50:37;4.90;99.90
47765;DHT22;33529;49.242;8.670;2023-12-20T00:53:04;4.80;99.90
47765;DHT22;33529;49.242;8.670;2023-12-20T00:55:30;4.80;99.90
47765;DHT22;33529;49.242;8.670;2023-12-20T00:57:57;4.80;99.90
47765;DHT22;33529;49.242;8.670;2023-12-20T01:00:26;4.90;99.90
47765;DHT22;33529;49.242;8.670;2023-12-20T01:02:53;4.80;99.90
47765;DHT22;33529;49.242;8.670;2023-12-20T01:05:20;4.90;99.90
47765;DHT22;33529;49.242;8.670;2023-12-20T01:07:49;4.90;99.90
47765;DHT22;33529;49.242;8.670;2023-12-20T01:10:16;4.90;99.90
47765;DHT22;33529;49.242;8.670;2023-12-20T01:12:44;4.90;99.90
47765;DHT22;33529;49.242;8.670;2023-12-20T01:15:11;4.90;99.90
47765;DHT22;33529;49.242;8.670;2023-12-20T01:17:38;4.90;99.90
47765;DHT22;33529;49.242;8.670;2023-12-20T01:20:05;4.90;99.90
47765;DHT22;33529;49.242;8.670;2023-12-20T01:22:32;4.90;99.90
47765;DHT22;33529;49.242;8.670;2023-12-20T01:25:02;4.90;99.90
47765;DHT22;33529;49.242;8.670;2023-12-20T01:27:29;4.90;99.90
47765;DHT22;33529;49.242;8.670;2023-12-20T01:29:58;5.00;99.90
47765;DHT22;33529;49.242;8.670;2023-12-20T01:32:25;5.00;99.90
47765;DHT22;33529;49.242;8.670;2023-12-20T01:34:52;5.00;99.90
47765;DHT22;33529;49.242;8.670;2023-12-20T01:37:19;5.00;99.90
47765;DHT22;33529;49.242;8.670;2023-12-20T01:39:46;5.00;99.90
47765;DHT22;33529;49.242;8.670;2023-12-20T01:42:13;5.00;99.90
47765;DHT22;33529;49.242;8.670;2023-12-20T01:44:40;5.00;99.90
47765;DHT22;33529;49.242;8.670;2023-12-20T01:47:08;5.10;99.90
47765;DHT22;33529;49.242;8.670;2023-12-20T01:49:35;5.10;99.90
47765;DHT22;33529;49.242;8.670;2023-12-20T01:52:02;5.10;99.90
47765;DHT22;33529;49.242;8.670;2023-12-20T01:54:30;5.10;99.90
47765;DHT22;33529;49.242;8.670;2023-12-20T01:56:58;5.10;99.90
47765;DHT22;33529;49.242;8.670;2023-12-20T01:59:25;5.10;99.90
47765;DHT22;33529;49.242;8.670;2023-12-20T02:01:52;5.10;99.90
47765;DHT22;33529;49.242;8.670;2023-12-20T02:04:19;5.00;99.90
47765;DHT22;33529;49.242;8.670;2023-12-20T02:06:52;5.10;99.90
47765;DHT22;33529;49.242;8.670;2023-12-20T02:09:19;5.10;99.90
47765;DHT22;33529;49.242;8.670;2023-12-20T02:11:46;5.10;99.90
47765;DHT22;33529;49.242;8.670;2023-12-20T02:14:13;5.10;99.90
47765;DHT22;33529;49.242;8.670;2023-12-20T02:16:43;5.20;99.90
47765;DHT22;33529;49.242;8.670;2023-12-20T02:19:20;5.20;99.90
47765;DHT22;33529;49.242;8.670;2023-12-20T02:21:47;5.10;99.90
47765;DHT22;33529;49.242;8.670;2023-12-20T02:24:14;5.20;99.90
47765;DHT22;33529;49.242;8.670;2023-12-20T02:26:41;5.20;99.90
47765;DHT22;33529;49.242;8.670;2023-12-20T02:29:13;5.20;99.90
47765;DHT22;33529;49.242;8.670;2023-12-20T02:31:40;5.20;99.90
47765;DHT22;33529;49.242;8.670;2023-12-20T02:34:07;5.20;99.90
47765;DHT22;33529;49.242;8.670;2023-12-20T02:36:34;5.20;99.90
47765;DHT22;33529;49.242;8.670;2023-12-20T02:39:00;5.20;99.90
47765;DHT22;33529;49.242;8.670;2023-12-20T02:41:27;5.20;99.90
47765;DHT22;33529;49.242;8.670;2023-12-20T02:43:54;5.20;99.90
47765;DHT22;33529;49.242;8.670;2023-12-20T02:46:21;5.20;99.90
47765;DHT22;33529;49.242;8.670;2023-12-20T02:48:50;5.20;99.90
47765;DHT22;33529;49.242;8.670;2023-12-20T02:51:17;5.20;99.90
47765;DHT22;33529;49.242;8.670;2023-12-20T02:53:43;5.30;99.90
47765;DHT22;33529;49.242;8.670;2023-12-20T02:56:10;5.30;99.90
47765;DHT22;33529;49.242;8.670;2023-12-20T02:58:37;5.20;99.90
47765;DHT22;33529;49.242;8.670;2023-12-20T03:01:05;5.30;99.90
47765;DHT22;33529;49.242;8.670;2023-12-20T03:03:32;5.20;99.90
47765;DHT22;33529;49.242;8.670;2023-12-20T03:06:00;5.30;99.90
47765;DHT22;33529;49.242;8.670;2023-12-20T03:08:27;5.30;99.90
47765;DHT22;33529;49.242;8.670;2023-12-20T03:10:59;5.30;99.90
47765;DHT22;33529;49.242;8.670;2023-12-20T03:13:26;5.20;99.90
47765;DHT22;33529;49.242;8.670;2023-12-20T03:15:53;5.20;99.90
47765;DHT22;33529;49.242;8.670;2023-12-20T03:18:20;5.20;99.90
47765;DHT22;33529;49.242;8.670;2023-12-20T03:20:47;5.20;99.90
47765;DHT22;33529;49.242;8.670;2023-12-20T03:23:16;5.30;99.90
47765;DHT22;33529;49.242;8.670;2023-12-20T03:25:43;5.30;99.90
47765;DHT22;33529;49.242;8.670;2023-12-20T03:28:10;5.30;99.90
47765;DHT22;33529;49.242;8.670;2023-12-20T03:30:37;5.30;99.90
47765;DHT22;33529;49.242;8.670;2023-12-20T03:33:04;5.30;99.90
47765;DHT22;33529;49.242;8.670;2023-12-20T03:35:31;5.30;99.90
47765;DHT22;33529;49.242;8.670;2023-12-20T03:37:57;5.30;99.90
47765;DHT22;33529;49.242;8.670;2023-12-20T03:40:26;5.30;99.90
47765;DHT22;33529;49.242;8.670;2023-12-20T03:42:53;5.40;99.90
47765;DHT22;33529;49.242;8.670;2023-12-20T03:45:20;5.40;99.90
47765;DHT22;33529;49.242;8.670;2023-12-20T03:47:47;5.40;99.90
47765;DHT22;33529;49.242;8.670;2023-12-20T03:50:15;5.40;99.90
47765;DHT22;33529;49.242;8.670;2023-12-20T03:52:42;5.30;99.90
47765;DHT22;33529;49.242;8.670;2023-12-20T03:55:10;5.40;99.90
47765;DHT22;33529;49.242;8.670;2023-12-20T03:57:37;5.30;99.90
47765;DHT22;33529;49.242;8.670;2023-12-20T04:00:04;5.30;99.90
47765;DHT22;33529;49.242;8.670;2023-12-20T04:02:38;5.30;99.90
47765;DHT22;33529;49.242;8.670;2023-12-20T04:05:06;5.30;99.90
47765;DHT22;33529;49.242;8.670;2023-12-20T04:07:33;5.20;99.90
47765;DHT22;33529;49.242;8.670;2023-12-20T04:10:00;5.30;99.90
47765;DHT22;33529;49.242;8.670;2023-12-20T04:12:28;5.30;99.90
47765;DHT22;33529;49.242;8.670;2023-12-20T04:14:55;5.30;99.90
47765;DHT22;33529;49.242;8.670;2023-12-20T04:17:22;5.30;99.90
47765;DHT22;33529;49.242;8.670;2023-12-20T04:19:52;5.30;99.90
47765;DHT22;33529;49.242;8.670;2023-12-20T04:22:19;5.40;99.90
47765;DHT22;33529;49.242;8.670;2023-12-20T04:24:46;5.30;99.90
47765;DHT22;33529;49.242;8.670;2023-12-20T04:27:13;5.40;99.90
47765;DHT22;33529;49.242;8.670;2023-12-20T04:29:40;5.40;99.90
47765;DHT22;33529;49.242;8.670;2023-12-20T04:32:07;5.40;99.90
47765;DHT22;33529;49.242;8.670;2023-12-20T04:34:33;5.40;99.90
47765;DHT22;33529;49.242;8.670;2023-12-20T04:37:00;5.40;99.90
47765;DHT22;33529;49.242;8.670;2023-12-20T04:39:28;5.40;99.90
47765;DHT22;33529;49.242;8.670;2023-12-20T04:41:56;5.40;99.90
47765;DHT22;33529;49.242;8.670;2023-12-20T04:44:23;5.40;99.90
47765;DHT22;33529;49.242;8.670;2023-12-20T04:46:50;5.40;99.90
47765;DHT22;33529;49.242;8.670;2023-12-20T04:49:17;5.40;99.90
47765;DHT22;33529;49.242;8.670;2023-12-20T04:51:44;5.40;99.90
47765;DHT22;33529;49.242;8.670;2023-12-20T04:54:11;5.40;99.90
47765;DHT22;33529;49.242;8.670;2023-12-20T04:56:38;5.40;99.90
47765;DHT22;33529;49.242;8.670;2023-12-20T04:59:05;5.40;99.90
47765;DHT22;33529;49.242;8.670;2023-12-20T05:01:32;5.30;99.90
47765;DHT22;33529;49.242;8.670;2023-12-20T05:03:59;5.40;99.90
47765;DHT22;33529;49.242;8.670;2023-12-20T05:06:26;5.40;99.90
47765;DHT22;33529;49.242;8.670;2023-12-20T05:08:53;5.40;99.90
47765;DHT22;33529;49.242;8.670;2023-12-20T05:11:20;5.50;99.90
47765;DHT22;33529;49.242;8.670;2023-12-20T05:13:47;5.40;99.90
47765;DHT22;33529;49.242;8.670;2023-12-20T05:16:16;5.40;99.90
47765;DHT22;33529;49.242;8.670;2023-12-20T05:18:48;5.40;99.90
47765;DHT22;33529;49.242;8.670;2023-12-20T05:21:16;5.50;99.90
47765;DHT22;33529;49.242;8.670;2023-12-20T05:23:43;5.40;99.90
47765;DHT22;33529;49.242;8.670;2023-12-20T05:26:09;5.50;99.90
47765;DHT22;33529;49.242;8.670;2023-12-20T05:28:36;5.40;99.90
47765;DHT22;33529;49.242;8.670;2023-12-20T05:31:03;5.40;99.90
47765;DHT22;33529;49.242;8.670;2023-12-20T05:33:30;5.40;99.90
47765;DHT22;33529;49.242;8.670;2023-12-20T05:35:57;5.40;99.90
47765;DHT22;33529;49.242;8.670;2023-12-20T05:38:24;5.40;99.90
47765;DHT22;33529;49.242;8.670;2023-12-20T05:40:51;5.40;99.90
47765;DHT22;33529;49.242;8.670;2023-12-20T05:43:18;5.30;99.90
47765;DHT22;33529;49.242;8.670;2023-12-20T05:45:44;5.30;99.90
47765;DHT22;33529;49.242;8.670;2023-12-20T05:48:11;5.30;99.90
47765;DHT22;33529;49.242;8.670;2023-12-20T05:50:39;5.30;99.90
47765;DHT22;33529;49.242;8.670;2023-12-20T05:53:06;5.40;99.90
47765;DHT22;33529;49.242;8.670;2023-12-20T05:55:33;5.40;99.90
47765;DHT22;33529;49.242;8.670;2023-12-20T05:58:01;5.40;99.90
47765;DHT22;33529;49.242;8.670;2023-12-20T06:00:28;5.40;99.90
47765;DHT22;33529;49.242;8.670;2023-12-20T06:02:56;5.50;99.90
47765;DHT22;33529;49.242;8.670;2023-12-20T06:05:23;5.50;99.90
47765;DHT22;33529;49.242;8.670;2023-12-20T06:07:50;5.50;99.90
47765;DHT22;33529;49.242;8.670;2023-12-20T06:10:17;5.50;99.90
47765;DHT22;33529;49.242;8.670;2023-12-20T06:12:44;5.50;99.90
47765;DHT22;33529;49.242;8.670;2023-12-20T06:15:14;5.50;99.90
47765;DHT22;33529;49.242;8.670;2023-12-20T06:17:41;5.50;99.90
47765;DHT22;33529;49.242;8.670;2023-12-20T06:20:09;5.50;99.90
47765;DHT22;33529;49.242;8.670;2023-12-20T06:22:36;5.50;99.90
47765;DHT22;33529;49.242;8.670;2023-12-20T06:25:03;5.50;99.90
47765;DHT22;33529;49.242;8.670;2023-12-20T06:27:30;5.50;99.90
47765;DHT22;33529;49.242;8.670;2023-12-20T06:29:59;5.50;99.90
47765;DHT22;33529;49.242;8.670;2023-12-20T06:32:26;5.50;99.90
47765;DHT22;33529;49.242;8.670;2023-12-20T06:34:55;5.50;99.90
47765;DHT22;33529;49.242;8.670;2023-12-20T06:37:26;5.50;99.90
47765;DHT22;33529;49.242;8.670;2023-12-20T06:39:53;5.50;99.90
47765;DHT22;33529;49.242;8.670;2023-12-20T06:42:20;5.40;99.90
47765;DHT22;33529;49.242;8.670;2023-12-20T06:44:47;5.40;99.90
47765;DHT22;33529;49.242;8.670;2023-12-20T06:47:14;5.40;99.90
47765;DHT22;33529;49.242;8.670;2023-12-20T06:49:41;5.40;99.90
47765;DHT22;33529;49.242;8.670;2023-12-20T06:52:08;5.40;99.90
47765;DHT22;33529;49.242;8.670;2023-12-20T06:54:36;5.50;99.90
47765;DHT22;33529;49.242;8.670;2023-12-20T06:57:03;5.40;99.90
47765;DHT22;33529;49.242;8.670;2023-12-20T06:59:31;5.40;99.90
47765;DHT22;33529;49.242;8.670;2023-12-20T07:01:58;5.40;99.90
47765;DHT22;33529;49.242;8.670;2023-12-20T07:04:25;5.40;99.90
47765;DHT22;33529;49.242;8.670;2023-12-20T07:06:52;5.40;99.90
47765;DHT22;33529;49.242;8.670;2023-12-20T07:09:20;5.40;99.90
47765;DHT22;33529;49.242;8.670;2023-12-20T07:11:47;5.30;99.90
47765;DHT22;33529;49.242;8.670;2023-12-20T07:14:14;5.40;99.90
47765;DHT22;33529;49.242;8.670;2023-12-20T07:16:41;5.40;99.90
47765;DHT22;33529;49.242;8.670;2023-12-20T07:19:08;5.30;99.90
47765;DHT22;33529;49.242;8.670;2023-12-20T07:21:35;5.30;99.90
47765;DHT22;33529;49.242;8.670;2023-12-20T07:24:02;5.30;99.90
47765;DHT22;33529;49.242;8.670;2023-12-20T07:26:29;5.40;99.90
47765;DHT22;33529;49.242;8.670;2023-12-20T07:28:55;5.30;99.90
47765;DHT22;33529;49.242;8.670;2023-12-20T07:31:22;5.30;99.90
47765;DHT22;33529;49.242;8.670;2023-12-20T07:33:51;5.40;99.90
47765;DHT22;33529;49.242;8.670;2023-12-20T07:36:20;5.40;99.90
47765;DHT22;33529;49.242;8.670;2023-12-20T07:38:48;5.30;99.90
47765;DHT22;33529;49.242;8.670;2023-12-20T07:41:14;5.30;99.90
47765;DHT22;33529;49.242;8.670;2023-12-20T07:43:43;5.20;99.90
47765;DHT22;33529;49.242;8.670;2023-12-20T07:46:10;5.10;99.90
47765;DHT22;33529;49.242;8.670;2023-12-20T07:48:38;5.00;99.90
47765;DHT22;33529;49.242;8.670;2023-12-20T07:51:09;5.00;99.90
47765;DHT22;33529;49.242;8.670;2023-12-20T07:53:36;4.90;99.90
47765;DHT22;33529;49.242;8.670;2023-12-20T07:56:14;4.80;99.90
47765;DHT22;33529;49.242;8.670;2023-12-20T07:58:41;4.80;99.90
47765;DHT22;33529;49.242;8.670;2023-12-20T08:01:18;4.80;99.90
47765;DHT22;33529;49.242;8.670;2023-12-20T08:03:45;4.80;99.90
47765;DHT22;33529;49.242;8.670;2023-12-20T08:06:13;4.70;99.90
47765;DHT22;33529;49.242;8.670;2023-12-20T08:08:40;4.70;99.90
47765;DHT22;33529;49.242;8.670;2023-12-20T08:11:09;4.80;99.90
47765;DHT22;33529;49.242;8.670;2023-12-20T08:13:36;4.70;99.90
47765;DHT22;33529;49.242;8.670;2023-12-20T08:16:03;4.70;99.90
47765;DHT22;33529;49.242;8.670;2023-12-20T08:18:34;4.80;99.90
47765;DHT22;33529;49.242;8.670;2023-12-20T08:21:00;4.80;99.90
47765;DHT22;33529;49.242;8.670;2023-12-20T08:23:28;4.80;99.90
47765;DHT22;33529;49.242;8.670;2023-12-20T08:25:58;4.80;99.90
47765;DHT22;33529;49.242;8.670;2023-12-20T08:28:25;4.90;99.90
47765;DHT22;33529;49.242;8.670;2023-12-20T08:30:52;4.90;99.90
47765;DHT22;33529;49.242;8.670;2023-12-20T08:33:20;5.00;99.90
47765;DHT22;33529;49.242;8.670;2023-12-20T08:35:47;4.90;99.90
47765;DHT22;33529;49.242;8.670;2023-12-20T08:38:14;5.00;99.90
47765;DHT22;33529;49.242;8.670;2023-12-20T08:40:41;5.00;99.90
47765;DHT22;33529;49.242;8.670;2023-12-20T08:43:08;5.00;99.90
47765;DHT22;33529;49.242;8.670;2023-12-20T08:45:35;5.10;99.90
47765;DHT22;33529;49.242;8.670;2023-12-20T08:48:10;5.10;99.90
47765;DHT22;33529;49.242;8.670;2023-12-20T08:50:49;5.20;99.90
47765;DHT22;33529;49.242;8.670;2023-12-20T08:53:26;5.30;99.90
47765;DHT22;33529;49.242;8.670;2023-12-20T08:56:00;5.40;99.90
47765;DHT22;33529;49.242;8.670;2023-12-20T08:58:28;5.50;99.90
47765;DHT22;33529;49.242;8.670;2023-12-20T09:00:56;5.60;99.90
47765;DHT22;33529;49.242;8.670;2023-12-20T09:03:24;5.60;99.90
47765;DHT22;33529;49.242;8.670;2023-12-20T09:06:16;5.60;99.90
47765;DHT22;33529;49.242;8.670;2023-12-20T09:08:43;5.60;99.90
47765;DHT22;33529;49.242;8.670;2023-12-20T09:11:10;5.70;99.90
47765;DHT22;33529;49.242;8.670;2023-12-20T09:13:37;5.80;99.90
47765;DHT22;33529;49.242;8.670;2023-12-20T09:16:04;5.70;99.90
47765;DHT22;33529;49.242;8.670;2023-12-20T09:21:45;5.90;99.90
47765;DHT22;33529;49.242;8.670;2023-12-20T09:24:11;5.90;99.90
47765;DHT22;33529;49.242;8.670;2023-12-20T09:26:38;5.90;99.90
47765;DHT22;33529;49.242;8.670;2023-12-20T09:29:06;5.90;99.90
47765;DHT22;33529;49.242;8.670;2023-12-20T09:31:36;5.90;99.90
47765;DHT22;33529;49.242;8.670;2023-12-20T09:34:03;5.80;99.90
47765;DHT22;33529;49.242;8.670;2023-12-20T09:36:30;5.90;99.90
47765;DHT22;33529;49.242;8.670;2023-12-20T09:39:02;5.80;99.90
47765;DHT22;33529;49.242;8.670;2023-12-20T09:41:31;5.90;99.90
47765;DHT22;33529;49.242;8.670;2023-12-20T09:44:04;5.90;99.90
47765;DHT22;33529;49.242;8.670;2023-12-20T09:46:32;5.90;99.90
47765;DHT22;33529;49.242;8.670;2023-12-20T09:49:01;6.00;99.90
47765;DHT22;33529;49.242;8.670;2023-12-20T09:51:39;6.00;99.90
47765;DHT22;33529;49.242;8.670;2023-12-20T09:54:07;6.20;99.90
47765;DHT22;33529;49.242;8.670;2023-12-20T09:56:33;6.20;99.90
47765;DHT22;33529;49.242;8.670;2023-12-20T09:59:00;6.30;99.90
47765;DHT22;33529;49.242;8.670;2023-12-20T10:01:28;6.40;99.90
47765;DHT22;33529;49.242;8.670;2023-12-20T10:03:56;6.50;99.90
47765;DHT22;33529;49.242;8.670;2023-12-20T10:06:23;6.50;99.90
47765;DHT22;33529;49.242;8.670;2023-12-20T10:08:51;6.60;99.90
47765;DHT22;33529;49.242;8.670;2023-12-20T10:11:18;6.60;99.90
47765;DHT22;33529;49.242;8.670;2023-12-20T10:13:48;6.70;99.90
47765;DHT22;33529;49.242;8.670;2023-12-20T10:16:15;6.80;99.90
47765;DHT22;33529;49.242;8.670;2023-12-20T10:18:42;6.80;99.90
47765;DHT22;33529;49.242;8.670;2023-12-20T10:21:09;6.80;99.90
47765;DHT22;33529;49.242;8.670;2023-12-20T10:23:37;6.80;99.90
47765;DHT22;33529;49.242;8.670;2023-12-20T10:26:05;6.90;99.90
47765;DHT22;33529;49.242;8.670;2023-12-20T10:28:35;7.00;99.90
47765;DHT22;33529;49.242;8.670;2023-12-20T10:31:04;7.10;99.90
47765;DHT22;33529;49.242;8.670;2023-12-20T10:33:31;7.00;99.90
47765;DHT22;33529;49.242;8.670;2023-12-20T10:36:00;7.00;99.90
47765;DHT22;33529;49.242;8.670;2023-12-20T10:38:26;6.80;99.90
47765;DHT22;33529;49.242;8.670;2023-12-20T10:40:57;6.80;99.90
47765;DHT22;33529;49.242;8.670;2023-12-20T10:43:27;6.80;99.90
47765;DHT22;33529;49.242;8.670;2023-12-20T10:45:55;6.70;99.90
47765;DHT22;33529;49.242;8.670;2023-12-20T10:48:23;6.70;99.90
47765;DHT22;33529;49.242;8.670;2023-12-20T10:50:56;6.60;99.90
47765;DHT22;33529;49.242;8.670;2023-12-20T10:53:24;6.70;99.90
47765;DHT22;33529;49.242;8.670;2023-12-20T10:55:54;6.70;99.90
47765;DHT22;33529;49.242;8.670;2023-12-20T10:58:22;6.80;99.90
47765;DHT22;33529;49.242;8.670;2023-12-20T11:00:54;6.70;99.90
47765;DHT22;33529;49.242;8.670;2023-12-20T11:03:25;6.70;99.90
47765;DHT22;33529;49.242;8.670;2023-12-20T11:08:51;6.80;99.90
47765;DHT22;33529;49.242;8.670;2023-12-20T11:11:29;6.70;99.90
47765;DHT22;33529;49.242;8.670;2023-12-20T11:14:06;6.70;99.90
47765;DHT22;33529;49.242;8.670;2023-12-20T11:16:38;6.60;99.90
47765;DHT22;33529;49.242;8.670;2023-12-20T11:19:18;6.60;99.90
47765;DHT22;33529;49.242;8.670;2023-12-20T11:21:46;6.60;99.90
47765;DHT22;33529;49.242;8.670;2023-12-20T11:24:13;6.60;99.90
47765;DHT22;33529;49.242;8.670;2023-12-20T11:26:47;6.60;99.90
47765;DHT22;33529;49.242;8.670;2023-12-20T11:29:35;6.70;99.90
47765;DHT22;33529;49.242;8.670;2023-12-20T11:32:48;6.60;99.90
47765;DHT22;33529;49.242;8.670;2023-12-20T11:34:58;6.60;99.90
47765;DHT22;33529;49.242;8.670;2023-12-20T11:37:35;6.60;99.90
47765;DHT22;33529;49.242;8.670;2023-12-20T11:40:06;6.60;99.90
47765;DHT22;33529;49.242;8.670;2023-12-20T11:42:38;6.70;99.90
47765;DHT22;33529;49.242;8.670;2023-12-20T11:45:15;6.70;99.90
47765;DHT22;33529;49.242;8.670;2023-12-20T11:47:45;6.60;99.90
47765;DHT22;33529;49.242;8.670;2023-12-20T11:50:14;6.60;99.90
47765;DHT22;33529;49.242;8.670;2023-12-20T11:52:41;6.50;99.90
47765;DHT22;33529;49.242;8.670;2023-12-20T11:55:08;6.50;99.90
47765;DHT22;33529;49.242;8.670;2023-12-20T11:57:35;6.60;99.90
47765;DHT22;33529;49.242;8.670;2023-12-20T12:00:04;6.60;99.90
47765;DHT22;33529;49.242;8.670;2023-12-20T12:02:38;6.60;99.90
47765;DHT22;33529;49.242;8.670;2023-12-20T12:05:05;6.60;99.90
47765;DHT22;33529;49.242;8.670;2023-12-20T12:07:34;6.50;99.90
47765;DHT22;33529;49.242;8.670;2023-12-20T12:10:01;6.50;99.90
47765;DHT22;33529;49.242;8.670;2023-12-20T12:12:30;6.60;99.90
47765;DHT22;33529;49.242;8.670;2023-12-20T12:15:01;6.50;99.90
47765;DHT22;33529;49.242;8.670;2023-12-20T12:17:29;6.40;99.90
47765;DHT22;33529;49.242;8.670;2023-12-20T12:20:03;6.40;99.90
47765;DHT22;33529;49.242;8.670;2023-12-20T12:22:31;6.40;99.90
47765;DHT22;33529;49.242;8.670;2023-12-20T12:25:09;6.40;99.90
47765;DHT22;33529;49.242;8.670;2023-12-20T12:27:44;6.40;99.90
47765;DHT22;33529;49.242;8.670;2023-12-20T12:30:11;6.40;99.90
47765;DHT22;33529;49.242;8.670;2023-12-20T12:32:40;6.40;99.90
47765;DHT22;33529;49.242;8.670;2023-12-20T12:35:08;6.40;99.90
47765;DHT22;33529;49.242;8.670;2023-12-20T12:37:37;6.40;99.90
47765;DHT22;33529;49.242;8.670;2023-12-20T12:40:13;6.30;99.90
47765;DHT22;33529;49.242;8.670;2023-12-20T12:42:42;6.30;99.90
47765;DHT22;33529;49.242;8.670;2023-12-20T12:45:10;6.30;99.90
47765;DHT22;33529;49.242;8.670;2023-12-20T12:47:50;6.30;99.90
47765;DHT22;33529;49.242;8.670;2023-12-20T12:50:21;6.30;99.90
47765;DHT22;33529;49.242;8.670;2023-12-20T12:52:48;6.20;99.90
47765;DHT22;33529;49.242;8.670;2023-12-20T12:55:15;6.30;99.90
47765;DHT22;33529;49.242;8.670;2023-12-20T12:57:42;6.30;99.90
47765;DHT22;33529;49.242;8.670;2023-12-20T13:00:11;6.30;99.90
47765;DHT22;33529;49.242;8.670;2023-12-20T13:02:38;6.30;99.90
47765;DHT22;33529;49.242;8.670;2023-12-20T13:05:08;6.30;99.90
47765;DHT22;33529;49.242;8.670;2023-12-20T13:07:36;6.20;99.90
47765;DHT22;33529;49.242;8.670;2023-12-20T13:10:13;6.10;99.90
47765;DHT22;33529;49.242;8.670;2023-12-20T13:12:43;6.10;99.90
47765;DHT22;33529;49.242;8.670;2023-12-20T13:15:10;6.10;99.90
47765;DHT22;33529;49.242;8.670;2023-12-20T13:17:37;6.10;99.90
47765;DHT22;33529;49.242;8.670;2023-12-20T13:20:05;6.10;99.90
47765;DHT22;33529;49.242;8.670;2023-12-20T13:22:34;6.10;99.90
47765;DHT22;33529;49.242;8.670;2023-12-20T13:25:00;6.10;99.90
47765;DHT22;33529;49.242;8.670;2023-12-20T13:27:29;6.10;99.90
47765;DHT22;33529;49.242;8.670;2023-12-20T13:29:57;6.10;99.90
47765;DHT22;33529;49.242;8.670;2023-12-20T13:32:24;6.10;99.90
47765;DHT22;33529;49.242;8.670;2023-12-20T13:34:51;6.10;99.90
47765;DHT22;33529;49.242;8.670;2023-12-20T13:37:18;6.20;99.90
47765;DHT22;33529;49.242;8.670;2023-12-20T13:39:45;6.10;99.90
47765;DHT22;33529;49.242;8.670;2023-12-20T13:42:12;6.10;99.90
47765;DHT22;33529;49.242;8.670;2023-12-20T13:44:39;6.00;99.90
47765;DHT22;33529;49.242;8.670;2023-12-20T13:47:06;6.00;99.90
47765;DHT22;33529;49.242;8.670;2023-12-20T13:49:33;6.10;99.90
47765;DHT22;33529;49.242;8.670;2023-12-20T13:52:00;6.00;99.90
47765;DHT22;33529;49.242;8.670;2023-12-20T13:54:30;6.00;99.90
47765;DHT22;33529;49.242;8.670;2023-12-20T13:56:57;6.10;99.90
47765;DHT22;33529;49.242;8.670;2023-12-20T13:59:38;6.10;99.90
47765;DHT22;33529;49.242;8.670;2023-12-20T14:02:05;6.10;99.90
47765;DHT22;33529;49.242;8.670;2023-12-20T14:04:32;6.10;99.90
47765;DHT22;33529;49.242;8.670;2023-12-20T14:07:09;6.00;99.90
47765;DHT22;33529;49.242;8.670;2023-12-20T14:09:37;6.00;99.90
47765;DHT22;33529;49.242;8.670;2023-12-20T14:12:04;5.90;99.90
47765;DHT22;33529;49.242;8.670;2023-12-20T14:14:31;5.80;99.90
47765;DHT22;33529;49.242;8.670;2023-12-20T14:16:58;5.80;99.90
47765;DHT22;33529;49.242;8.670;2023-12-20T14:19:25;5.80;99.90
47765;DHT22;33529;49.242;8.670;2023-12-20T14:21:52;5.80;99.90
47765;DHT22;33529;49.242;8.670;2023-12-20T14:24:19;5.80;99.90
47765;DHT22;33529;49.242;8.670;2023-12-20T14:26:46;5.80;99.90
47765;DHT22;33529;49.242;8.670;2023-12-20T14:29:13;5.90;99.90
47765;DHT22;33529;49.242;8.670;2023-12-20T14:31:39;5.90;99.90
47765;DHT22;33529;49.242;8.670;2023-12-20T14:34:07;5.90;99.90
47765;DHT22;33529;49.242;8.670;2023-12-20T14:36:35;5.90;99.90
47765;DHT22;33529;49.242;8.670;2023-12-20T14:39:02;6.00;99.90
47765;DHT22;33529;49.242;8.670;2023-12-20T14:41:30;5.90;99.90
47765;DHT22;33529;49.242;8.670;2023-12-20T14:43:58;5.90;99.90
47765;DHT22;33529;49.242;8.670;2023-12-20T14:46:27;5.90;99.90
47765;DHT22;33529;49.242;8.670;2023-12-20T14:48:55;5.90;99.90
47765;DHT22;33529;49.242;8.670;2023-12-20T14:51:22;5.90;99.90
47765;DHT22;33529;49.242;8.670;2023-12-20T14:53:49;5.90;99.90
47765;DHT22;33529;49.242;8.670;2023-12-20T14:56:16;5.90;99.90
47765;DHT22;33529;49.242;8.670;2023-12-20T14:58:43;5.80;99.90
47765;DHT22;33529;49.242;8.670;2023-12-20T15:01:10;5.80;99.90
47765;DHT22;33529;49.242;8.670;2023-12-20T15:03:37;5.80;99.90
47765;DHT22;33529;49.242;8.670;2023-12-20T15:06:05;5.70;99.90
47765;DHT22;33529;49.242;8.670;2023-12-20T15:08:33;5.70;99.90
47765;DHT22;33529;49.242;8.670;2023-12-20T15:10:59;5.70;99.90
47765;DHT22;33529;49.242;8.670;2023-12-20T15:13:27;5.60;99.90
47765;DHT22;33529;49.242;8.670;2023-12-20T15:15:54;5.60;99.90
47765;DHT22;33529;49.242;8.670;2023-12-20T15:18:21;5.50;99.90
47765;DHT22;33529;49.242;8.670;2023-12-20T15:20:48;5.60;99.90
47765;DHT22;33529;49.242;8.670;2023-12-20T15:23:16;5.50;99.90
47765;DHT22;33529;49.242;8.670;2023-12-20T15:25:43;5.70;99.90
47765;DHT22;33529;49.242;8.670;2023-12-20T15:28:10;5.70;99.90
47765;DHT22;33529;49.242;8.670;2023-12-20T15:30:37;5.70;99.90
47765;DHT22;33529;49.242;8.670;2023-12-20T15:33:05;5.80;99.90
47765;DHT22;33529;49.242;8.670;2023-12-20T15:35:33;5.80;99.90
47765;DHT22;33529;49.242;8.670;2023-12-20T15:38:00;5.80;99.90
47765;DHT22;33529;49.242;8.670;2023-12-20T15:40:28;5.80;99.90
47765;DHT22;33529;49.242;8.670;2023-12-20T15:42:55;5.70;99.90
47765;DHT22;33529;49.242;8.670;2023-12-20T15:45:22;5.70;99.90
47765;DHT22;33529;49.242;8.670;2023-12-20T15:47:49;5.80;99.90
47765;DHT22;33529;49.242;8.670;2023-12-20T15:50:16;5.70;99.90
47765;DHT22;33529;49.242;8.670;2023-12-20T15:52:44;5.80;99.90
47765;DHT22;33529;49.242;8.670;2023-12-20T15:55:12;5.80;99.90
47765;DHT22;33529;49.242;8.670;2023-12-20T15:57:39;5.80;99.90